createdAt,value
2018-12-24T00:00:45.825Z,94.32
2018-12-24T00:01:45.858Z,94.32
2018-12-24T00:02:45.886Z,94.79
2018-12-24T00:03:45.917Z,94.60
2018-12-24T00:04:45.949Z,94.98
2018-12-24T00:05:45.980Z,94.70
2018-12-24T00:06:46.009Z,94.70
2018-12-24T00:07:46.042Z,94.98
2018-12-24T00:08:46.143Z,94.98
2018-12-24T00:09:46.111Z,94.79
2018-12-24T00:10:46.133Z,94.03
2018-12-24T00:11:46.163Z,94.51
2018-12-24T00:12:46.195Z,94.42
2018-12-24T00:13:46.226Z,94.56
2018-12-24T00:14:46.258Z,94.18
2018-12-24T00:15:46.285Z,94.18
2018-12-24T00:16:46.317Z,94.22
2018-12-24T00:17:46.349Z,94.08
2018-12-24T00:18:46.467Z,94.08
2018-12-24T00:19:46.411Z,93.98
2018-12-24T00:20:46.441Z,93.32
2018-12-24T00:21:46.475Z,94.08
2018-12-24T00:22:46.505Z,93.41
2018-12-24T00:23:46.534Z,93.65
2018-12-24T00:24:46.564Z,93.60
2018-12-24T00:25:46.596Z,93.37
2018-12-24T00:26:46.630Z,93.37
2018-12-24T00:27:46.658Z,93.55
2018-12-24T00:28:46.700Z,93.55
2018-12-24T00:29:46.723Z,93.75
2018-12-24T00:30:46.751Z,93.37
2018-12-24T00:31:46.781Z,93.27
2018-12-24T00:32:46.813Z,93.37
2018-12-24T00:33:46.844Z,92.70
2018-12-24T00:34:46.876Z,92.61
2018-12-24T00:35:46.905Z,92.80
2018-12-24T00:36:46.944Z,92.70
2018-12-24T00:37:46.968Z,92.41
2018-12-24T00:38:47.004Z,92.89
2018-12-24T00:39:47.028Z,92.13
2018-12-24T00:40:47.059Z,92.32
2018-12-24T00:41:47.092Z,92.41
2018-12-24T00:42:47.128Z,92.13
2018-12-24T00:43:47.153Z,92.13
2018-12-24T00:44:47.184Z,91.94
2018-12-24T00:45:47.215Z,91.94
2018-12-24T00:46:47.245Z,91.94
2018-12-24T00:47:47.276Z,91.85
2018-12-24T00:48:47.309Z,91.75
2018-12-24T00:49:47.339Z,91.47
2018-12-24T00:50:47.369Z,91.71
2018-12-24T00:51:47.400Z,91.80
2018-12-24T00:52:47.433Z,91.52
2018-12-24T00:53:47.462Z,91.42
2018-12-24T00:54:47.493Z,91.52
2018-12-24T00:55:47.524Z,91.04
2018-12-24T00:56:47.555Z,91.04
2018-12-24T00:57:47.585Z,91.04
2018-12-24T00:58:47.617Z,91.04
2018-12-24T00:59:47.646Z,91.04
2018-12-24T01:00:47.677Z,91.13
2018-12-24T01:01:48.886Z,91.33
2018-12-24T01:02:47.740Z,91.42
2018-12-24T01:03:47.769Z,91.13
2018-12-24T01:04:47.801Z,91.42
2018-12-24T01:05:47.830Z,91.33
2018-12-24T01:06:47.862Z,91.04
2018-12-24T01:07:47.893Z,91.33
2018-12-24T01:08:47.926Z,91.71
2018-12-24T01:09:47.953Z,91.89
2018-12-24T01:10:47.984Z,91.61
2018-12-24T01:11:48.014Z,91.61
2018-12-24T01:12:48.045Z,91.42
2018-12-24T01:13:48.082Z,91.71
2018-12-24T01:14:48.107Z,91.80
2018-12-24T01:15:48.136Z,91.61
2018-12-24T01:16:48.167Z,91.33
2018-12-24T01:17:48.198Z,90.94
2018-12-24T01:18:48.232Z,90.85
2018-12-24T01:19:48.259Z,91.13
2018-12-24T01:20:48.289Z,91.13
2018-12-24T01:21:48.322Z,91.13
2018-12-24T01:22:48.351Z,91.13
2018-12-24T01:23:48.383Z,91.13
2018-12-24T01:24:48.412Z,91.13
2018-12-24T01:25:48.442Z,91.23
2018-12-24T01:26:48.473Z,91.13
2018-12-24T01:27:48.503Z,91.13
2018-12-24T01:28:48.533Z,91.33
2018-12-24T01:29:48.564Z,90.94
2018-12-24T01:30:48.595Z,90.94
2018-12-24T01:31:48.624Z,90.56
2018-12-24T01:32:48.654Z,90.37
2018-12-24T01:33:48.686Z,90.37
2018-12-24T01:34:48.720Z,90.56
2018-12-24T01:35:48.746Z,90.66
2018-12-24T01:36:48.776Z,90.75
2018-12-24T01:37:48.808Z,90.75
2018-12-24T01:38:48.838Z,90.94
2018-12-24T01:39:48.868Z,90.71
2018-12-24T01:40:48.899Z,90.61
2018-12-24T01:41:48.928Z,90.61
2018-12-24T01:42:48.959Z,90.37
2018-12-24T01:43:48.993Z,90.42
2018-12-24T01:44:49.022Z,90.61
2018-12-24T01:45:49.050Z,90.71
2018-12-24T01:46:49.082Z,90.71
2018-12-24T01:47:49.116Z,90.56
2018-12-24T01:48:49.144Z,90.61
2018-12-24T01:49:49.176Z,90.61
2018-12-24T01:50:49.203Z,90.71
2018-12-24T01:51:49.235Z,90.71
2018-12-24T01:52:49.262Z,90.23
2018-12-24T01:53:49.293Z,90.33
2018-12-24T01:54:49.324Z,90.90
2018-12-24T01:55:49.354Z,90.71
2018-12-24T01:56:49.386Z,90.90
2018-12-24T01:57:49.415Z,90.61
2018-12-24T01:58:49.445Z,90.42
2018-12-24T01:59:49.474Z,89.95
2018-12-24T02:00:49.506Z,90.23
2018-12-24T02:01:49.537Z,90.33
2018-12-24T02:02:49.567Z,90.23
2018-12-24T02:03:49.596Z,90.23
2018-12-24T02:04:49.627Z,89.76
2018-12-24T02:05:49.656Z,89.57
2018-12-24T02:06:49.689Z,90.23
2018-12-24T02:07:49.718Z,90.14
2018-12-24T02:08:49.749Z,90.14
2018-12-24T02:09:49.779Z,90.05
2018-12-24T02:10:49.808Z,89.86
2018-12-24T02:11:49.840Z,90.14
2018-12-24T02:12:49.869Z,89.67
2018-12-24T02:13:49.901Z,89.76
2018-12-24T02:14:49.936Z,89.67
2018-12-24T02:15:49.959Z,89.86
2018-12-24T02:16:49.990Z,89.95
2018-12-24T02:17:50.019Z,89.57
2018-12-24T02:18:50.051Z,89.57
2018-12-24T02:19:50.079Z,89.76
2018-12-24T02:20:50.109Z,89.76
2018-12-24T02:21:50.139Z,89.67
2018-12-24T02:22:50.170Z,89.86
2018-12-24T02:23:50.199Z,89.47
2018-12-24T02:24:50.229Z,89.95
2018-12-24T02:25:50.265Z,89.19
2018-12-24T02:26:50.292Z,89.00
2018-12-24T02:29:37.505Z,88.90
2018-12-24T02:30:32.210Z,89.28
2018-12-24T02:32:35.383Z,89.19
2018-12-24T02:33:35.386Z,89.19
2018-12-24T02:35:39.409Z,89.95
2018-12-24T02:36:39.439Z,89.95
2018-12-24T02:38:43.477Z,89.38
2018-12-24T02:39:43.483Z,89.47
2018-12-24T02:41:47.506Z,89.38
2018-12-24T02:42:52.240Z,88.90
2018-12-24T02:44:51.555Z,88.90
2018-12-24T02:45:51.581Z,89.28
2018-12-24T02:47:54.756Z,89.00
2018-12-24T02:48:54.753Z,88.90
2018-12-24T02:50:56.988Z,89.00
2018-12-24T02:51:57.015Z,89.09
2018-12-24T02:53:59.273Z,89.19
2018-12-24T02:54:59.283Z,89.19
2018-12-24T02:57:01.428Z,89.33
2018-12-24T02:58:01.451Z,89.62
2018-12-24T03:00:05.480Z,89.05
2018-12-24T03:01:05.506Z,89.14
2018-12-24T03:02:57.597Z,89.14
2018-12-24T03:03:57.598Z,88.95
2018-12-24T03:06:00.683Z,89.05
2018-12-24T03:07:00.711Z,89.24
2018-12-24T03:09:03.804Z,89.05
2018-12-24T03:10:03.812Z,88.86
2018-12-24T03:11:56.964Z,88.86
2018-12-24T03:13:02.491Z,89.05
2018-12-24T03:15:00.264Z,88.86
2018-12-24T03:16:00.242Z,88.67
2018-12-24T03:18:04.288Z,88.86
2018-12-24T03:19:04.289Z,88.76
2018-12-24T03:21:08.314Z,88.86
2018-12-24T03:22:08.339Z,89.14
2018-12-24T03:24:12.379Z,89.24
2018-12-24T03:25:12.388Z,89.05
2018-12-24T03:27:16.426Z,88.86
2018-12-24T03:28:16.435Z,89.05
2018-12-24T03:30:19.465Z,89.43
2018-12-24T03:31:19.495Z,89.43
2018-12-24T03:33:12.461Z,88.95
2018-12-24T03:34:12.467Z,88.95
2018-12-24T03:36:15.513Z,88.76
2018-12-24T03:37:15.540Z,88.86
2018-12-24T03:39:18.624Z,89.14
2018-12-24T03:40:18.633Z,89.14
2018-12-24T03:42:21.701Z,89.14
2018-12-24T03:43:21.728Z,88.95
2018-12-24T03:45:24.896Z,88.86
2018-12-24T03:46:24.917Z,88.76
2018-12-24T03:48:28.962Z,89.24
2018-12-24T03:49:28.974Z,89.72
2018-12-24T03:51:32.991Z,89.53
2018-12-24T03:52:33.013Z,89.43
2018-12-24T03:54:37.078Z,88.86
2018-12-24T03:55:37.087Z,89.14
2018-12-24T03:57:40.153Z,88.86
2018-12-24T03:58:40.171Z,89.43
2018-12-24T04:00:44.193Z,89.81
2018-12-24T04:01:44.215Z,89.62
2018-12-24T04:03:48.254Z,89.14
2018-12-24T04:04:48.262Z,88.86
2018-12-24T04:06:52.299Z,89.33
2018-12-24T04:07:52.313Z,88.95
2018-12-24T04:09:54.541Z,88.95
2018-12-24T04:10:54.568Z,89.14
2018-12-24T04:12:47.617Z,89.14
2018-12-24T04:13:47.540Z,89.24
2018-12-24T04:15:51.564Z,89.05
2018-12-24T04:16:51.593Z,89.43
2018-12-24T04:18:53.697Z,89.24
2018-12-24T04:19:53.707Z,88.95
2018-12-24T04:21:56.789Z,89.05
2018-12-24T04:22:56.816Z,88.86
2018-12-24T04:25:00.844Z,88.62
2018-12-24T04:26:00.871Z,89.00
2018-12-24T04:28:03.913Z,89.00
2018-12-24T04:29:03.927Z,88.62
2018-12-24T04:31:07.093Z,88.72
2018-12-24T04:32:07.116Z,88.91
2018-12-24T04:34:09.370Z,88.62
2018-12-24T04:35:09.379Z,88.15
2018-12-24T04:37:13.401Z,88.06
2018-12-24T04:38:13.426Z,87.96
2018-12-24T04:40:17.465Z,87.87
2018-12-24T04:41:17.473Z,88.24
2018-12-24T04:43:10.440Z,88.34
2018-12-24T04:44:10.456Z,88.24
2018-12-24T04:46:14.476Z,87.77
2018-12-24T04:47:14.501Z,87.96
2018-12-24T04:49:18.551Z,88.15
2018-12-24T04:50:18.546Z,87.77
2018-12-24T04:52:20.840Z,87.87
2018-12-24T04:53:20.866Z,88.34
2018-12-24T04:55:23.925Z,88.34
2018-12-24T04:56:23.949Z,88.24
2018-12-24T04:58:27.994Z,88.06
2018-12-24T04:59:27.999Z,88.06
2018-12-24T05:01:32.018Z,88.06
2018-12-24T05:02:32.042Z,87.87
2018-12-24T05:04:35.098Z,88.15
2018-12-24T05:05:35.095Z,88.15
2018-12-24T05:07:27.273Z,87.87
2018-12-24T05:08:27.306Z,87.87
2018-12-24T05:10:30.381Z,87.96
2018-12-24T05:11:30.406Z,87.96
2018-12-24T05:13:23.363Z,87.96
2018-12-24T05:14:23.373Z,87.96
2018-12-24T05:16:15.557Z,87.58
2018-12-24T05:17:15.581Z,87.96
2018-12-24T05:19:18.779Z,87.39
2018-12-24T05:20:18.787Z,88.53
2018-12-24T05:22:21.975Z,87.58
2018-12-24T05:23:21.979Z,87.96
2018-12-24T05:25:26.012Z,87.77
2018-12-24T05:26:26.035Z,87.68
2018-12-24T05:28:28.156Z,87.96
2018-12-24T05:29:28.166Z,87.39
2018-12-24T05:31:30.314Z,87.87
2018-12-24T05:32:30.338Z,88.34
2018-12-24T05:34:33.435Z,87.77
2018-12-24T05:35:33.445Z,87.96
2018-12-24T05:37:36.617Z,87.96
2018-12-24T05:38:36.642Z,87.58
2018-12-24T05:40:39.708Z,88.15
2018-12-24T05:41:39.734Z,88.15
2018-12-24T05:43:49.252Z,87.96
2018-12-24T05:44:42.091Z,87.73
2018-12-24T05:46:45.586Z,88.01
2018-12-24T05:47:45.192Z,88.24
2018-12-24T05:49:48.266Z,88.10
2018-12-24T05:50:48.276Z,88.29
2018-12-24T05:52:40.279Z,88.10
2018-12-24T05:53:40.308Z,87.92
2018-12-24T05:55:43.482Z,87.92
2018-12-24T05:56:43.504Z,87.82
2018-12-24T05:58:46.587Z,87.63
2018-12-24T05:59:46.596Z,87.45
2018-12-24T06:01:50.643Z,87.63
2018-12-24T06:02:50.663Z,87.54
2018-12-24T06:04:54.700Z,86.97
2018-12-24T06:05:54.708Z,87.35
2018-12-24T06:07:58.733Z,87.35
2018-12-24T06:08:58.759Z,87.35
2018-12-24T06:11:01.923Z,87.25
2018-12-24T06:12:01.948Z,87.25
2018-12-24T06:14:05.018Z,87.63
2018-12-24T06:15:05.025Z,87.73
2018-12-24T06:17:08.529Z,87.54
2018-12-24T06:18:08.121Z,87.35
2018-12-24T06:20:12.137Z,87.25
2018-12-24T06:21:12.162Z,86.97
2018-12-24T06:23:04.133Z,87.16
2018-12-24T06:24:04.158Z,87.06
2018-12-24T06:26:08.185Z,86.59
2018-12-24T06:27:08.220Z,87.16
2018-12-24T06:29:11.277Z,87.16
2018-12-24T06:30:11.284Z,87.06
2018-12-24T06:32:14.457Z,86.40
2018-12-24T06:33:14.479Z,86.68
2018-12-24T06:35:17.638Z,86.59
2018-12-24T06:36:17.662Z,86.49
2018-12-24T06:38:19.805Z,86.21
2018-12-24T06:39:19.825Z,86.11
2018-12-24T06:41:23.847Z,86.21
2018-12-24T06:42:23.872Z,85.93
2018-12-24T06:44:27.909Z,85.64
2018-12-24T06:45:27.918Z,86.02
2018-12-24T06:47:30.320Z,85.64
2018-12-24T06:48:30.332Z,85.45
2018-12-24T06:50:32.478Z,85.36
2018-12-24T06:51:32.503Z,85.36
2018-12-24T06:53:25.469Z,85.64
2018-12-24T06:54:25.470Z,85.07
2018-12-24T06:56:28.645Z,85.26
2018-12-24T06:57:28.672Z,85.07
2018-12-24T06:59:31.840Z,84.78
2018-12-24T07:00:31.847Z,84.88
2018-12-24T07:02:35.867Z,84.59
2018-12-24T07:03:35.891Z,84.78
2018-12-24T07:05:39.920Z,84.98
2018-12-24T07:06:39.944Z,84.31
2018-12-24T07:08:43.980Z,84.41
2018-12-24T07:09:43.988Z,84.69
2018-12-24T07:11:47.073Z,84.41
2018-12-24T07:12:47.098Z,84.59
2018-12-24T07:14:50.282Z,85.07
2018-12-24T07:15:50.290Z,84.41
2018-12-24T07:17:53.348Z,84.59
2018-12-24T07:18:53.375Z,84.59
2018-12-24T07:20:57.872Z,84.31
2018-12-24T07:21:57.417Z,84.22
2018-12-24T07:23:50.573Z,84.22
2018-12-24T07:24:50.584Z,84.31
2018-12-24T07:26:53.626Z,84.55
2018-12-24T07:27:53.657Z,83.89
2018-12-24T07:29:57.673Z,83.98
2018-12-24T07:30:57.698Z,83.80
2018-12-24T07:32:49.754Z,84.08
2018-12-24T07:33:49.780Z,83.42
2018-12-24T07:35:52.950Z,83.61
2018-12-24T07:36:52.977Z,83.51
2018-12-24T07:38:55.145Z,83.13
2018-12-24T07:39:55.147Z,83.23
2018-12-24T07:41:58.315Z,83.23
2018-12-24T07:42:58.341Z,83.23
2018-12-24T07:45:01.428Z,83.51
2018-12-24T07:46:01.452Z,83.13
2018-12-24T07:48:05.470Z,83.13
2018-12-24T07:49:05.495Z,83.13
2018-12-24T07:51:07.716Z,82.85
2018-12-24T07:52:07.737Z,82.56
2018-12-24T07:54:09.994Z,82.37
2018-12-24T07:55:10.005Z,82.66
2018-12-24T07:57:13.065Z,82.47
2018-12-24T07:58:13.085Z,82.28
2018-12-24T08:00:17.106Z,82.28
2018-12-24T08:01:17.130Z,82.09
2018-12-24T08:03:09.210Z,81.62
2018-12-24T08:04:09.237Z,81.62
2018-12-24T08:06:12.305Z,81.62
2018-12-24T08:07:12.337Z,81.52
2018-12-24T08:09:14.492Z,81.43
2018-12-24T08:10:14.499Z,81.90
2018-12-24T08:12:18.526Z,81.99
2018-12-24T08:13:18.543Z,82.37
2018-12-24T08:15:22.563Z,82.32
2018-12-24T08:16:22.588Z,82.09
2018-12-24T08:18:25.606Z,82.04
2018-12-24T08:19:25.630Z,81.85
2018-12-24T08:21:28.684Z,81.75
2018-12-24T08:22:28.709Z,81.47
2018-12-24T08:24:32.744Z,80.99
2018-12-24T08:25:32.755Z,80.62
2018-12-24T08:27:36.769Z,80.48
2018-12-24T08:28:36.795Z,80.00
2018-12-24T08:30:39.818Z,80.38
2018-12-24T08:31:39.844Z,79.91
2018-12-24T08:33:42.327Z,79.91
2018-12-24T08:34:42.099Z,80.19
2018-12-24T08:36:45.185Z,80.19
2018-12-24T08:37:45.213Z,80.29
2018-12-24T08:39:49.232Z,80.19
2018-12-24T08:40:49.255Z,80.19
2018-12-24T08:42:41.312Z,79.25
2018-12-24T08:43:41.337Z,79.15
2018-12-24T08:45:44.435Z,79.53
2018-12-24T08:46:44.452Z,79.91
2018-12-24T08:48:46.685Z,79.82
2018-12-24T08:49:46.705Z,79.63
2018-12-24T08:51:49.777Z,79.91
2018-12-24T08:52:49.802Z,79.82
2018-12-24T08:54:51.947Z,79.82
2018-12-24T08:55:51.972Z,79.72
2018-12-24T08:57:54.449Z,79.91
2018-12-24T08:58:54.244Z,80.19
2018-12-24T09:00:57.413Z,80.19
2018-12-24T09:01:58.117Z,79.82
2018-12-24T09:04:01.487Z,79.53
2018-12-24T09:05:01.489Z,79.63
2018-12-24T09:07:04.520Z,79.25
2018-12-24T09:08:04.541Z,79.25
2018-12-24T09:10:07.611Z,79.53
2018-12-24T09:11:07.636Z,79.44
2018-12-24T09:12:59.643Z,79.44
2018-12-24T09:13:59.668Z,79.53
2018-12-24T09:16:02.753Z,79.44
2018-12-24T09:17:02.779Z,79.63
2018-12-24T09:19:04.957Z,79.63
2018-12-24T09:20:04.962Z,79.82
2018-12-24T09:22:07.178Z,79.63
2018-12-24T09:23:07.202Z,79.53
2018-12-24T09:25:10.292Z,79.34
2018-12-24T09:26:10.314Z,79.34
2018-12-24T09:28:13.360Z,79.44
2018-12-24T09:29:13.420Z,79.44
2018-12-24T09:31:15.533Z,79.25
2018-12-24T09:32:15.557Z,79.06
2018-12-24T09:34:19.602Z,79.53
2018-12-24T09:35:19.609Z,79.25
2018-12-24T09:37:21.850Z,79.44
2018-12-24T09:38:21.762Z,79.53
2018-12-24T09:40:23.857Z,79.34
2018-12-24T09:41:23.880Z,79.53
2018-12-24T09:43:16.826Z,79.06
2018-12-24T09:44:16.846Z,78.91
2018-12-24T09:46:19.862Z,78.72
2018-12-24T09:47:19.892Z,78.43
2018-12-24T09:49:21.934Z,78.34
2018-12-24T09:50:21.940Z,77.96
2018-12-24T09:52:24.085Z,77.45
2018-12-24T09:53:24.131Z,78.15
2018-12-24T09:55:26.174Z,77.39
2018-12-24T09:56:26.197Z,77.58
2018-12-24T09:58:28.412Z,77.54
2018-12-24T09:59:28.443Z,77.73
2018-12-24T10:01:30.525Z,78.15
2018-12-24T10:02:30.551Z,77.54
2018-12-24T10:04:32.625Z,77.86
2018-12-24T10:05:32.637Z,77.58
2018-12-24T10:07:35.821Z,77.67
2018-12-24T10:08:35.768Z,77.58
2018-12-24T10:10:38.946Z,77.96
2018-12-24T10:11:38.968Z,77.39
2018-12-24T10:13:41.346Z,77.67
2018-12-24T10:14:41.339Z,77.58
2018-12-24T10:16:45.359Z,77.58
2018-12-24T10:17:45.381Z,77.67
2018-12-24T10:19:48.453Z,77.86
2018-12-24T10:20:48.461Z,78.05
2018-12-24T10:22:40.550Z,78.34
2018-12-24T10:23:40.575Z,77.96
2018-12-24T10:25:43.649Z,78.34
2018-12-24T10:26:43.673Z,78.34
2018-12-24T10:28:47.704Z,78.24
2018-12-24T10:29:47.725Z,78.24
2018-12-24T10:31:50.034Z,78.34
2018-12-24T10:32:50.059Z,78.24
2018-12-24T10:34:54.101Z,78.24
2018-12-24T10:35:54.110Z,78.43
2018-12-24T10:37:57.242Z,78.53
2018-12-24T10:38:57.268Z,78.43
2018-12-24T10:41:00.434Z,78.72
2018-12-24T10:42:00.459Z,78.53
2018-12-24T10:44:04.482Z,78.53
2018-12-24T10:45:04.506Z,78.81
2018-12-24T10:47:06.829Z,78.91
2018-12-24T10:48:06.854Z,78.91
2018-12-24T10:50:09.011Z,78.91
2018-12-24T10:51:09.020Z,79.00
2018-12-24T10:53:01.035Z,78.72
2018-12-24T10:54:01.053Z,79.00
2018-12-24T10:56:03.209Z,79.10
2018-12-24T10:57:03.230Z,78.72
2018-12-24T10:59:07.254Z,78.72
2018-12-24T11:00:07.274Z,78.72
2018-12-24T11:02:11.297Z,78.72
2018-12-24T11:03:11.323Z,78.53
2018-12-24T11:05:14.341Z,78.62
2018-12-24T11:06:14.367Z,78.72
2018-12-24T11:08:17.429Z,78.91
2018-12-24T11:09:17.455Z,79.10
2018-12-24T11:11:21.480Z,79.19
2018-12-24T11:12:21.497Z,79.19
2018-12-24T11:14:24.533Z,79.38
2018-12-24T11:15:25.274Z,79.10
2018-12-24T11:17:27.608Z,79.00
2018-12-24T11:18:27.634Z,78.72
2018-12-24T11:20:31.656Z,78.53
2018-12-24T11:21:31.677Z,77.96
2018-12-24T11:23:23.756Z,77.86
2018-12-24T11:24:23.782Z,77.77
2018-12-24T11:26:27.802Z,78.34
2018-12-24T11:27:27.827Z,77.86
2018-12-24T11:29:30.968Z,77.58
2018-12-24T11:30:30.990Z,77.77
2018-12-24T11:32:35.011Z,77.48
2018-12-24T11:33:35.036Z,77.39
2018-12-24T11:35:37.378Z,77.01
2018-12-24T11:36:37.387Z,77.39
2018-12-24T11:38:39.529Z,66.69
2018-12-24T11:39:39.553Z,54.60
2018-12-24T11:41:44.070Z,48.57
2018-12-24T11:42:43.595Z,48.54
2018-12-24T11:44:46.647Z,52.18
2018-12-24T11:45:46.672Z,53.01
2018-12-24T11:47:50.697Z,57.33
2018-12-24T11:48:50.717Z,59.49
2018-12-24T11:50:54.753Z,62.59
2018-12-24T11:51:54.762Z,64.02
2018-12-24T11:53:58.781Z,65.41
2018-12-24T11:54:58.803Z,66.17
2018-12-24T11:57:02.839Z,67.37
2018-12-24T11:58:02.845Z,68.04
2018-12-24T12:00:04.957Z,69.65
2018-12-24T12:01:04.981Z,69.27
2018-12-24T12:02:57.924Z,69.71
2018-12-24T12:03:57.948Z,70.31
2018-12-24T12:06:01.989Z,76.10
2018-12-24T12:07:01.995Z,76.76
2018-12-24T12:09:04.096Z,71.89
2018-12-24T12:10:04.121Z,71.55
2018-12-24T12:12:06.263Z,70.75
2018-12-24T12:13:06.268Z,70.56
2018-12-24T12:15:08.302Z,71.70
2018-12-24T12:16:08.330Z,72.45
2018-12-24T12:18:10.335Z,72.36
2018-12-24T12:19:10.361Z,72.17
2018-12-24T12:21:12.388Z,72.55
2018-12-24T12:22:12.393Z,72.17
2018-12-24T12:24:14.539Z,72.74
2018-12-24T12:25:14.563Z,72.74
2018-12-24T12:27:16.592Z,72.84
2018-12-24T12:28:17.230Z,72.84
2018-12-24T12:30:18.610Z,72.27
2018-12-24T12:31:18.634Z,72.36
2018-12-24T12:33:10.605Z,72.45
2018-12-24T12:34:10.630Z,72.84
2018-12-24T12:36:12.785Z,72.84
2018-12-24T12:37:12.800Z,73.31
2018-12-24T12:39:14.896Z,73.41
2018-12-24T12:40:14.901Z,74.07
2018-12-24T12:42:17.762Z,73.31
2018-12-24T12:43:16.934Z,73.22
2018-12-24T12:45:18.941Z,73.03
2018-12-24T12:46:18.966Z,72.45
2018-12-24T12:48:21.442Z,72.45
2018-12-24T12:49:21.000Z,71.98
2018-12-24T12:51:23.483Z,72.45
2018-12-24T12:52:23.030Z,72.36
2018-12-24T12:54:25.041Z,72.17
2018-12-24T12:55:25.064Z,72.08
2018-12-24T12:57:27.098Z,72.45
2018-12-24T12:58:27.109Z,72.45
2018-12-24T13:00:29.114Z,73.03
2018-12-24T13:01:29.139Z,71.98
2018-12-24T13:03:21.076Z,72.45
2018-12-24T13:04:21.096Z,71.70
2018-12-24T13:06:23.140Z,71.70
2018-12-24T13:07:23.134Z,71.98
2018-12-24T13:09:25.152Z,71.98
2018-12-24T13:10:25.179Z,71.80
2018-12-24T13:11:25.205Z,72.17
2018-12-24T13:12:25.233Z,72.08
2018-12-24T13:13:25.261Z,72.36
2018-12-24T13:14:25.290Z,72.64
2018-12-24T13:15:25.320Z,73.03
2018-12-24T13:16:25.347Z,72.45
2018-12-24T13:17:25.375Z,72.74
2018-12-24T13:18:25.404Z,72.93
2018-12-24T13:19:25.434Z,72.45
2018-12-24T13:20:25.461Z,71.89
2018-12-24T13:21:25.489Z,72.55
2018-12-24T13:22:25.519Z,73.69
2018-12-24T13:23:25.545Z,72.45
2018-12-24T13:24:25.573Z,72.27
2018-12-24T13:25:25.603Z,72.84
2018-12-24T13:26:25.630Z,73.12
2018-12-24T13:27:25.658Z,72.84
2018-12-24T13:28:25.687Z,73.03
2018-12-24T13:29:25.715Z,73.03
2018-12-24T13:30:25.747Z,73.22
2018-12-24T13:31:25.770Z,73.60
2018-12-24T13:32:26.542Z,73.12
2018-12-24T13:33:25.828Z,73.12
2018-12-24T13:34:25.856Z,73.22
2018-12-24T13:35:25.885Z,73.31
2018-12-24T13:36:25.913Z,72.93
2018-12-24T13:37:25.946Z,72.74
2018-12-24T13:38:25.971Z,72.64
2018-12-24T13:39:25.999Z,72.84
2018-12-24T13:40:26.026Z,72.45
2018-12-24T13:41:26.055Z,72.93
2018-12-24T13:42:26.157Z,72.93
2018-12-24T13:43:26.117Z,73.50
2018-12-24T13:44:26.140Z,73.50
2018-12-24T13:45:26.168Z,73.31
2018-12-24T13:46:26.197Z,73.37
2018-12-24T13:47:26.224Z,73.75
2018-12-24T13:48:26.252Z,73.41
2018-12-24T13:49:26.280Z,73.60
2018-12-24T13:50:26.308Z,74.07
2018-12-24T13:51:26.337Z,73.46
2018-12-24T13:52:26.365Z,73.18
2018-12-24T13:53:26.392Z,73.27
2018-12-24T13:54:26.421Z,73.75
2018-12-24T13:55:26.451Z,73.65
2018-12-24T13:56:26.480Z,73.94
2018-12-24T13:57:26.510Z,74.22
2018-12-24T13:58:26.535Z,74.41
2018-12-24T13:59:26.564Z,74.32
2018-12-24T14:00:26.591Z,74.51
2018-12-24T14:01:26.620Z,74.69
2018-12-24T14:02:26.649Z,74.88
2018-12-24T14:03:26.678Z,74.60
2018-12-24T14:04:26.706Z,74.41
2018-12-24T14:05:26.732Z,74.69
2018-12-24T14:06:26.760Z,74.88
2018-12-24T14:07:26.789Z,74.88
2018-12-24T14:08:26.817Z,75.07
2018-12-24T14:09:26.847Z,74.98
2018-12-24T14:10:26.874Z,74.51
2018-12-24T14:11:26.902Z,74.13
2018-12-24T14:12:26.930Z,74.79
2018-12-24T14:13:26.958Z,74.69
2018-12-24T14:14:26.986Z,74.22
2018-12-24T14:15:27.015Z,74.41
2018-12-24T14:16:27.045Z,74.51
2018-12-24T14:17:27.072Z,74.51
2018-12-24T14:18:27.100Z,74.51
2018-12-24T14:19:27.127Z,74.03
2018-12-24T14:20:27.157Z,74.41
2018-12-24T14:21:27.184Z,74.60
2018-12-24T14:22:27.211Z,74.22
2018-12-24T14:23:27.243Z,74.51
2018-12-24T14:24:27.268Z,74.79
2018-12-24T14:25:27.295Z,74.41
2018-12-24T14:26:27.324Z,74.60
2018-12-24T14:27:27.352Z,75.07
2018-12-24T14:28:27.381Z,75.17
2018-12-24T14:29:27.410Z,75.17
2018-12-24T14:30:27.437Z,75.17
2018-12-24T14:31:27.466Z,75.55
2018-12-24T14:32:27.493Z,75.36
2018-12-24T14:33:27.521Z,75.93
2018-12-24T14:34:27.550Z,76.31
2018-12-24T14:35:27.590Z,76.31
2018-12-24T14:36:27.606Z,76.21
2018-12-24T14:37:27.654Z,76.31
2018-12-24T14:38:27.663Z,77.16
2018-12-24T14:39:27.692Z,77.16
2018-12-24T14:40:27.718Z,76.78
2018-12-24T14:41:27.748Z,76.59
2018-12-24T14:42:27.787Z,76.12
2018-12-24T14:43:27.802Z,75.45
2018-12-24T14:44:27.832Z,76.03
2018-12-24T14:45:27.861Z,76.03
2018-12-24T14:46:27.887Z,75.87
2018-12-24T14:47:27.916Z,75.59
2018-12-24T14:48:27.946Z,75.64
2018-12-24T14:49:27.972Z,75.64
2018-12-24T14:50:28.001Z,75.93
2018-12-24T14:51:28.028Z,75.74
2018-12-24T14:52:28.060Z,76.06
2018-12-24T14:53:28.084Z,75.45
2018-12-24T14:54:28.114Z,75.64
2018-12-24T14:55:28.142Z,75.64
2018-12-24T14:56:28.171Z,75.84
2018-12-24T14:57:28.197Z,76.31
2018-12-24T14:58:28.225Z,76.31
2018-12-24T14:59:28.257Z,76.31
2018-12-24T15:00:28.283Z,76.68
2018-12-24T15:01:28.311Z,76.31
2018-12-24T15:02:28.339Z,75.55
2018-12-24T15:03:28.374Z,75.55
2018-12-24T15:04:28.399Z,75.84
2018-12-24T15:05:28.424Z,76.50
2018-12-24T15:06:28.451Z,75.84
2018-12-24T15:07:28.482Z,76.12
2018-12-24T15:08:28.511Z,76.40
2018-12-24T15:09:28.535Z,76.40
2018-12-24T15:10:28.563Z,76.50
2018-12-24T15:11:28.592Z,76.03
2018-12-24T15:12:28.624Z,76.31
2018-12-24T15:13:28.647Z,75.84
2018-12-24T15:14:28.677Z,75.74
2018-12-24T15:15:28.705Z,75.84
2018-12-24T15:16:34.017Z,76.40
2018-12-24T15:17:28.766Z,76.03
2018-12-24T15:18:28.788Z,76.68
2018-12-24T15:19:28.817Z,76.59
2018-12-24T15:20:28.846Z,76.87
2018-12-24T15:21:28.873Z,77.06
2018-12-24T15:22:28.902Z,77.06
2018-12-24T15:23:28.930Z,77.25
2018-12-24T15:24:28.958Z,77.16
2018-12-24T15:25:28.986Z,77.06
2018-12-24T15:26:29.013Z,77.16
2018-12-24T15:27:29.041Z,77.64
2018-12-24T15:28:29.070Z,77.73
2018-12-24T15:29:29.104Z,77.92
2018-12-24T15:30:29.125Z,78.39
2018-12-24T15:31:29.153Z,78.39
2018-12-24T15:32:29.184Z,78.49
2018-12-24T15:33:29.209Z,78.58
2018-12-24T15:34:29.240Z,78.67
2018-12-24T15:35:29.268Z,79.06
2018-12-24T15:36:29.294Z,78.67
2018-12-24T15:37:29.321Z,79.44
2018-12-24T15:38:29.350Z,79.44
2018-12-24T15:39:29.378Z,78.67
2018-12-24T15:40:29.409Z,79.34
2018-12-24T15:41:29.480Z,79.53
2018-12-24T15:42:29.462Z,79.34
2018-12-24T15:43:29.490Z,79.44
2018-12-24T15:44:29.521Z,79.82
2018-12-24T15:45:29.546Z,79.72
2018-12-24T15:46:29.575Z,80.38
2018-12-24T15:47:29.602Z,80.48
2018-12-24T15:48:29.630Z,80.48
2018-12-24T15:49:29.657Z,80.67
2018-12-24T15:50:29.686Z,80.57
2018-12-24T15:51:29.712Z,80.86
2018-12-24T15:52:29.741Z,80.76
2018-12-24T15:53:29.769Z,80.86
2018-12-24T15:54:29.799Z,81.24
2018-12-24T15:55:29.825Z,80.95
2018-12-24T15:56:29.853Z,81.05
2018-12-24T15:57:29.881Z,81.43
2018-12-24T15:58:29.909Z,81.33
2018-12-24T15:59:29.937Z,80.95
2018-12-24T16:00:29.965Z,81.24
2018-12-24T16:01:29.991Z,81.43
2018-12-24T16:02:30.020Z,81.43
2018-12-24T16:03:36.771Z,81.81
2018-12-24T16:04:30.077Z,81.52
2018-12-24T16:05:30.122Z,81.43
2018-12-24T16:06:30.130Z,81.33
2018-12-24T16:07:30.162Z,81.33
2018-12-24T16:08:30.188Z,81.43
2018-12-24T16:09:30.215Z,81.62
2018-12-24T16:10:30.244Z,82.28
2018-12-24T16:11:30.270Z,82.09
2018-12-24T16:12:30.299Z,82.28
2018-12-24T16:13:30.326Z,82.28
2018-12-24T16:14:30.353Z,81.99
2018-12-24T16:15:30.383Z,81.52
2018-12-24T16:16:30.412Z,81.71
2018-12-24T16:17:30.439Z,81.33
2018-12-24T16:18:30.467Z,81.43
2018-12-24T16:19:30.493Z,82.18
2018-12-24T16:20:30.522Z,82.09
2018-12-24T16:21:30.552Z,81.90
2018-12-24T16:22:30.576Z,82.28
2018-12-24T16:23:30.607Z,81.99
2018-12-24T16:24:30.634Z,82.18
2018-12-24T16:25:30.661Z,82.18
2018-12-24T16:26:30.688Z,82.28
2018-12-24T16:27:30.717Z,82.09
2018-12-24T16:28:30.744Z,82.18
2018-12-24T16:29:30.772Z,82.56
2018-12-24T16:30:30.799Z,82.09
2018-12-24T16:31:30.829Z,81.99
2018-12-24T16:32:30.859Z,81.99